Time;durP1;ratioP1;P1;durP2;ratioP2;P2;SDS_P1;SDS_P2;PMS_P1;PMS_P2;Temp;Humidity;BMP_temperature;BMP_pressure;BME280_temperature;BME280_humidity;BME280_pressure;Samples;Min_cycle;Max_cycle;Signal;HPM_P1;HPM_P2
2021/08/03 00:00:53;;;;;;;;;3.50;3.50;;;;;19.74;65.97;100922.72;5004114;28;45499;-73
2021/08/03 00:03:28;;;;;;;;;7.25;5.50;;;;;19.80;65.76;100932.31;5004701;28;45650;-73
2021/08/03 00:05:55;;;;;;;;;4.50;4.00;;;;;19.86;65.85;100944.56;5005087;28;45426;-73
2021/08/03 00:08:33;;;;;;;;;3.00;3.00;;;;;19.95;65.90;100958.34;5005137;28;45375;-73
2021/08/03 00:11:06;;;;;;;;;6.00;4.00;;;;;19.94;66.04;100964.72;5005006;28;45640;-73
2021/08/03 00:13:33;;;;;;;;;5.00;5.00;;;;;19.63;65.91;100912.63;5006254;28;45295;-73
2021/08/03 00:16:01;;;;;;;;;5.00;4.00;;;;;19.86;66.15;100950.84;5005464;28;45530;-73
2021/08/03 00:18:28;;;;;;;;;5.25;5.25;;;;;19.86;66.20;100953.53;5004029;28;45346;-73
2021/08/03 00:20:56;;;;;;;;;4.50;4.50;;;;;19.83;66.26;100945.66;5003308;28;45478;-73
2021/08/03 00:23:22;;;;;;;;;6.75;4.75;;;;;19.80;66.44;100935.03;5003337;28;45597;-73
2021/08/03 00:25:51;;;;;;;;;3.25;3.25;;;;;19.80;66.47;100930.47;5004230;28;45394;-73
2021/08/03 00:28:16;;;;;;;;;5.00;4.75;;;;;19.90;65.95;100946.09;5005495;28;46469;-73
2021/08/03 00:30:43;;;;;;;;;5.25;5.25;;;;;19.85;66.17;100938.28;5005097;28;45320;-73
2021/08/03 00:33:08;;;;;;;;;4.00;4.00;;;;;19.76;66.09;100926.25;5004927;28;45504;-73
2021/08/03 00:35:34;;;;;;;;;4.25;4.25;;;;;19.78;66.16;100935.13;5004283;28;45443;-73
2021/08/03 00:38:00;;;;;;;;;4.00;4.00;;;;;19.67;66.17;100904.28;5001625;28;46308;-73
2021/08/03 00:40:27;;;;;;;;;5.50;4.75;;;;;19.87;66.44;100941.75;4999954;28;45732;-73
2021/08/03 00:42:52;;;;;;;;;5.75;5.00;;;;;19.87;66.54;100936.31;5002292;28;45433;-73
2021/08/03 00:45:18;;;;;;;;;4.00;4.00;;;;;19.86;66.48;100929.16;5001255;28;45416;-73
2021/08/03 00:47:43;;;;;;;;;5.00;5.00;;;;;19.75;66.28;100919.06;4999834;28;45738;-73
2021/08/03 00:50:09;;;;;;;;;6.00;6.00;;;;;19.61;66.34;100887.50;5001760;28;45158;-73
2021/08/03 00:52:35;;;;;;;;;6.00;5.00;;;;;19.73;66.43;100904.75;5000898;28;45486;-73
2021/08/03 00:55:00;;;;;;;;;7.50;6.00;;;;;19.82;66.51;100926.78;5000400;28;45597;-73
2021/08/03 00:57:26;;;;;;;;;10.00;8.00;;;;;19.73;66.46;100909.28;5001336;28;45228;-73
2021/08/03 00:59:52;;;;;;;;;8.50;7.50;;;;;19.81;66.36;100928.63;5001773;28;45249;-73
2021/08/03 01:02:17;;;;;;;;;6.50;6.50;;;;;19.79;66.31;100919.72;4983998;28;45250;-73
2021/08/03 01:04:42;;;;;;;;;6.00;6.00;;;;;19.78;66.47;100912.59;5001618;28;45372;-73
2021/08/03 01:07:20;;;;;;;;;10.25;8.00;;;;;19.85;66.34;100924.75;5002100;28;46207;-73
2021/08/03 01:10:21;;;;;;;;;10.00;7.50;;;;;19.84;66.56;100914.88;4998880;28;45498;-73
2021/08/03 01:12:56;;;;;;;;;7.00;6.00;;;;;19.83;66.63;100912.25;5001919;28;45291;-73
2021/08/03 01:15:32;;;;;;;;;5.00;5.00;;;;;19.74;66.82;100908.31;5001561;28;45212;-73
2021/08/03 01:18:16;;;;;;;;;6.00;5.25;;;;;19.80;66.44;100911.50;5000035;28;47023;-73
2021/08/03 01:21:11;;;;;;;;;6.75;5.75;;;;;19.81;66.64;100912.34;4999595;28;45384;-73
2021/08/03 01:24:04;;;;;;;;;5.00;4.25;;;;;19.82;66.82;100918.66;5001063;28;45318;-73
2021/08/03 01:26:49;;;;;;;;;4.75;4.75;;;;;19.66;66.65;100883.59;5001251;28;45469;-73
2021/08/03 01:29:18;;;;;;;;;5.00;5.00;;;;;19.80;66.83;100906.09;4981185;28;47215;-73
2021/08/03 01:31:48;;;;;;;;;8.50;5.50;;;;;19.79;66.77;100906.19;4995771;28;45364;-73
2021/08/03 01:34:17;;;;;;;;;5.75;5.75;;;;;19.76;66.80;100899.16;5000624;28;45694;-73
2021/08/03 01:36:53;;;;;;;;;6.75;5.50;;;;;19.76;66.71;100900.97;5001263;28;45550;-73
2021/08/03 01:39:23;;;;;;;;;4.25;4.25;;;;;19.71;66.85;100887.75;4999875;28;46066;-73
2021/08/03 01:41:51;;;;;;;;;5.00;5.00;;;;;19.75;66.87;100889.28;5001318;28;45353;-73
2021/08/03 01:44:17;;;;;;;;;7.25;6.50;;;;;19.78;66.71;100891.78;5001098;28;45273;-74
2021/08/03 01:46:45;;;;;;;;;5.50;5.50;;;;;19.78;67.26;100891.78;5001209;28;45462;-73
2021/08/03 01:49:16;;;;;;;;;5.25;5.25;;;;;19.68;67.25;100874.41;4999256;28;46548;-73
2021/08/03 01:51:43;;;;;;;;;7.00;5.75;;;;;19.78;67.16;100885.50;5000156;28;45430;-73
2021/08/03 01:54:09;;;;;;;;;6.00;6.00;;;;;19.53;66.96;100846.53;4999907;28;45565;-73
2021/08/03 01:56:37;;;;;;;;;7.50;5.75;;;;;19.69;67.02;100883.38;5000674;28;45407;-73
2021/08/03 01:59:04;;;;;;;;;5.75;5.75;;;;;19.72;67.28;100878.63;5000297;28;46243;-74
2021/08/03 02:01:30;;;;;;;;;6.75;6.00;;;;;19.76;66.70;100882.91;5000043;28;45225;-73
2021/08/03 02:03:58;;;;;;;;;5.75;5.75;;;;;19.67;66.99;100874.50;5000651;28;45292;-73
2021/08/03 02:06:24;;;;;;;;;4.00;4.00;;;;;19.69;66.57;100878.84;4999972;28;45486;-73
2021/08/03 02:08:54;;;;;;;;;4.75;4.75;;;;;19.70;66.55;100877.00;4998563;28;47762;-74
2021/08/03 02:11:25;;;;;;;;;9.00;7.00;;;;;19.67;67.20;100886.19;5000808;28;45451;-73
2021/08/03 02:13:51;;;;;;;;;6.00;6.00;;;;;19.72;67.23;100892.16;5000804;28;45385;-73
2021/08/03 02:16:17;;;;;;;;;6.50;5.25;;;;;19.77;67.11;100902.72;4999224;28;45462;-74
2021/08/03 02:18:45;;;;;;;;;6.50;6.50;;;;;19.75;67.08;100899.25;5000174;28;46480;-73
2021/08/03 02:21:14;;;;;;;;;4.75;4.75;;;;;19.76;67.35;100912.69;5000919;28;45156;-73
2021/08/03 02:23:41;;;;;;;;;5.50;5.50;;;;;19.67;67.06;100890.75;5000249;28;45343;-73
2021/08/03 02:26:11;;;;;;;;;3.75;3.75;;;;;19.71;67.10;100897.69;4998377;28;45426;-73
2021/08/03 02:28:36;;;;;;;;;6.50;6.50;;;;;19.76;67.23;100901.88;5000562;28;45391;-73
2021/08/03 02:31:10;;;;;;;;;6.25;6.25;;;;;19.65;67.24;100879.16;4998686;28;45467;-73
2021/08/03 02:33:42;;;;;;;;;4.25;4.25;;;;;19.69;67.40;100891.50;4998259;28;46197;-73
2021/08/03 02:36:19;;;;;;;;;5.50;5.50;;;;;19.78;67.49;100896.34;5000457;28;45534;-74
2021/08/03 02:38:47;;;;;;;;;6.25;5.25;;;;;19.76;67.20;100884.72;4998741;28;46427;-73
2021/08/03 02:41:14;;;;;;;;;6.25;5.25;;;;;19.68;67.25;100874.41;4999105;28;45478;-73
2021/08/03 02:43:40;;;;;;;;;11.75;10.00;;;;;19.65;67.54;100871.91;5000168;28;45316;-73
2021/08/03 02:46:09;;;;;;;;;8.75;7.50;;;;;19.75;67.72;100888.44;4998673;28;45467;-73
2021/08/03 02:48:35;;;;;;;;;5.75;5.25;;;;;19.72;67.36;100883.19;5000236;28;46261;-73
2021/08/03 02:51:01;;;;;;;;;6.75;6.75;;;;;19.64;67.45;100862.03;4999067;28;45265;-73
2021/08/03 02:53:46;;;;;;;;;6.00;5.00;;;;;19.75;67.50;100883.00;4999439;28;45406;-73
2021/08/03 02:56:15;;;;;;;;;6.50;6.00;;;;;19.67;67.75;100869.94;5000152;28;45336;-73
2021/08/03 02:59:05;;;;;;;;;6.50;6.50;;;;;19.75;67.77;100889.28;4999679;28;45558;-73
2021/08/03 03:01:33;;;;;;;;;6.00;6.00;;;;;19.72;67.46;100875.06;4986958;28;45393;-73
2021/08/03 03:04:21;;;;;;;;;7.00;6.25;;;;;19.77;67.63;100890.03;4990589;28;45371;-73
2021/08/03 03:06:52;;;;;;;;;8.75;7.75;;;;;19.78;67.40;100877.38;5000131;28;45309;-73
2021/08/03 03:09:21;;;;;;;;;6.75;5.75;;;;;19.78;67.25;100882.81;4999721;28;46096;-73
2021/08/03 03:11:50;;;;;;;;;7.50;6.25;;;;;19.74;67.52;100873.09;5000112;28;45336;-73
2021/08/03 03:14:17;;;;;;;;;5.75;5.75;;;;;19.80;67.28;100875.44;4999774;28;45401;-73
2021/08/03 03:16:45;;;;;;;;;9.25;5.25;;;;;19.57;67.28;100839.94;4999787;28;45463;-73
2021/08/03 03:19:15;;;;;;;;;8.50;7.00;;;;;19.72;67.08;100859.66;4998215;28;48154;-73
2021/08/03 03:21:42;;;;;;;;;6.75;5.75;;;;;19.78;67.19;100869.25;4999871;28;45321;-73
2021/08/03 03:24:08;;;;;;;;;6.75;6.75;;;;;19.78;67.27;100871.97;4999085;28;45474;-73
2021/08/03 03:26:35;;;;;;;;;6.25;6.25;;;;;19.74;67.00;100862.28;4999061;28;45403;-73
2021/08/03 03:29:01;;;;;;;;;7.75;7.75;;;;;19.69;67.36;100845.47;4999785;28;45535;-73
2021/08/03 03:31:29;;;;;;;;;7.50;7.00;;;;;19.71;67.63;100844.41;4997543;28;45364;-74
2021/08/03 03:33:57;;;;;;;;;5.50;5.50;;;;;19.76;67.80;100857.63;4999350;28;45781;-73
2021/08/03 03:36:27;;;;;;;;;8.25;7.25;;;;;19.69;67.55;100849.03;4999851;28;45414;-74
2021/08/03 03:38:56;;;;;;;;;7.00;7.00;;;;;19.70;67.73;100842.66;4999034;28;46368;-73
2021/08/03 03:41:23;;;;;;;;;7.50;7.50;;;;;19.76;67.62;100855.81;4999744;28;45520;-73
2021/08/03 03:43:48;;;;;;;;;6.00;6.00;;;;;19.75;66.80;100861.34;4998373;28;45521;-73
2021/08/03 03:46:16;;;;;;;;;7.00;6.50;;;;;19.67;67.20;100853.69;4997526;28;45299;-73
2021/08/03 03:49:03;;;;;;;;;7.25;6.25;;;;;19.75;66.92;100873.03;4996550;28;48084;-73
2021/08/03 03:51:31;;;;;;;;;6.50;6.50;;;;;19.74;67.43;100867.69;4999634;28;45269;-73
2021/08/03 03:54:05;;;;;;;;;6.50;5.00;;;;;19.62;67.01;100855.88;4998922;28;45375;-73
2021/08/03 03:56:36;;;;;;;;;6.75;6.25;;;;;19.65;67.44;100862.91;4999619;28;45446;-73
2021/08/03 03:59:04;;;;;;;;;8.25;6.00;;;;;19.68;67.51;100870.81;4998892;28;46671;-74
2021/08/03 04:01:31;;;;;;;;;6.00;6.00;;;;;19.53;67.45;100851.94;4998964;28;45454;-73
2021/08/03 04:04:04;;;;;;;;;6.25;5.50;;;;;19.66;67.47;100875.47;4999152;28;45426;-73
2021/08/03 04:06:32;;;;;;;;;5.50;4.00;;;;;19.60;67.62;100868.66;4998223;28;45339;-73
2021/08/03 04:08:58;;;;;;;;;9.00;8.75;;;;;19.52;67.67;100861.03;4998811;28;47500;-74
2021/08/03 04:11:24;;;;;;;;;6.50;5.50;;;;;19.51;67.58;100855.72;4998897;28;45389;-74
2021/08/03 04:13:50;;;;;;;;;5.75;5.75;;;;;19.50;67.64;100862.13;5002315;28;45313;-74
2021/08/03 04:16:16;;;;;;;;;7.75;5.75;;;;;19.51;67.42;100866.56;5001753;28;45366;-73
2021/08/03 04:18:42;;;;;;;;;8.25;7.50;;;;;19.49;67.44;100861.25;5002209;28;46292;-73
2021/08/03 04:21:07;;;;;;;;;7.50;7.50;;;;;19.59;67.39;100885.84;5000927;28;45439;-73
2021/08/03 04:23:32;;;;;;;;;11.50;10.50;;;;;19.59;67.85;100892.13;5000803;28;45481;-74
2021/08/03 04:25:58;;;;;;;;;6.00;6.00;;;;;19.56;67.33;100886.06;5001903;28;45227;-73
2021/08/03 04:28:23;;;;;;;;;9.50;7.25;;;;;19.55;67.55;100882.50;5001003;28;47485;-73
2021/08/03 04:30:49;;;;;;;;;6.25;6.25;;;;;19.46;67.49;100860.59;5001810;28;45447;-73
2021/08/03 04:33:14;;;;;;;;;7.00;6.00;;;;;19.48;67.47;100869.47;5001308;28;45351;-73
2021/08/03 04:35:40;;;;;;;;;5.75;5.75;;;;;19.51;67.32;100875.56;5000889;28;46237;-74
2021/08/03 04:38:05;;;;;;;;;8.75;6.25;;;;;19.45;67.24;100865.13;4999234;28;45376;-73
2021/08/03 04:40:30;;;;;;;;;5.50;4.50;;;;;19.39;67.23;100857.41;4994409;28;45851;-73
2021/08/03 04:42:56;;;;;;;;;6.25;6.25;;;;;19.46;67.27;100872.25;4993193;28;45545;-73
2021/08/03 04:45:21;;;;;;;;;8.75;6.50;;;;;19.39;67.42;100865.53;5000923;28;45235;-73
2021/08/03 04:47:49;;;;;;;;;4.75;4.75;;;;;19.39;67.54;100862.84;5002205;28;45352;-73
2021/08/03 04:50:20;;;;;;;;;7.25;7.00;;;;;19.41;67.63;100869.00;5000880;28;45306;-73
2021/08/03 04:52:45;;;;;;;;;6.00;4.50;;;;;19.38;67.48;100856.56;5001580;28;45358;-72
2021/08/03 04:55:11;;;;;;;;;4.75;4.75;;;;;19.37;67.26;100856.66;4989674;28;45455;-73
2021/08/03 04:57:38;;;;;;;;;6.50;5.50;;;;;19.40;67.35;100853.75;4998395;28;47294;-82
2021/08/03 05:00:06;;;;;;;;;4.75;4.75;;;;;19.26;67.39;100835.72;5009984;28;45613;-82
2021/08/03 05:02:31;;;;;;;;;7.50;7.25;;;;;19.39;67.42;100857.41;4997794;28;46600;-82
2021/08/03 05:04:56;;;;;;;;;5.25;5.25;;;;;19.38;67.81;100864.69;5003158;28;45511;-83
2021/08/03 05:07:22;;;;;;;;;7.00;7.00;;;;;19.25;67.51;100842.13;4997572;28;53502;-83
2021/08/03 05:09:47;;;;;;;;;6.25;6.25;;;;;19.32;67.49;100842.56;5000601;28;45464;-82
2021/08/03 05:12:12;;;;;;;;;6.00;6.00;;;;;19.39;67.41;100863.69;5000180;28;45478;-82
2021/08/03 05:14:38;;;;;;;;;6.75;5.00;;;;;19.35;67.43;100854.06;5001593;28;45397;-81
2021/08/03 05:17:03;;;;;;;;;2.00;2.00;;;;;19.36;66.73;100858.50;5001672;28;45329;-82
2021/08/03 05:19:28;;;;;;;;;3.00;3.00;;;;;19.33;66.36;100853.31;5002820;28;45376;-82
2021/08/03 05:21:54;;;;;;;;;3.00;2.50;;;;;19.31;66.55;100852.56;5001105;28;45240;-83
2021/08/03 05:24:25;;;;;;;;;2.00;2.00;;;;;19.16;66.67;100827.38;4999354;28;45589;-83
2021/08/03 05:26:54;;;;;;;;;3.00;2.00;;;;;19.37;66.89;100857.53;5000552;28;45766;-81
2021/08/03 05:29:20;;;;;;;;;4.00;2.00;;;;;19.35;66.98;100861.31;5000578;28;45446;-80
2021/08/03 05:31:46;;;;;;;;;2.50;2.50;;;;;19.38;66.66;100870.09;5000413;28;45679;-83
2021/08/03 05:34:11;;;;;;;;;3.00;3.00;;;;;19.15;66.74;100831.03;5001062;28;45393;-83
2021/08/03 05:36:36;;;;;;;;;2.00;2.00;;;;;19.38;66.90;100875.50;5000132;28;46290;-81
2021/08/03 05:39:02;;;;;;;;;2.00;2.00;;;;;19.37;67.01;100875.63;5000320;28;45212;-82
2021/08/03 05:41:28;;;;;;;;;3.00;3.00;;;;;19.35;66.71;100872.16;5000122;28;45532;-82
2021/08/03 05:43:53;;;;;;;;;4.50;2.00;;;;;19.21;66.85;100846.88;5000701;28;45437;-83
2021/08/03 05:46:18;;;;;;;;;3.00;3.00;;;;;19.35;66.84;100866.72;5000712;28;45625;-79
2021/08/03 05:48:44;;;;;;;;;3.00;2.00;;;;;19.26;66.84;100857.38;5000875;28;45433;-81
2021/08/03 05:51:09;;;;;;;;;2.50;2.50;;;;;19.33;67.48;100868.66;4997967;28;45741;-79
2021/08/03 05:53:34;;;;;;;;;3.00;1.75;;;;;19.31;67.13;100865.19;4997778;28;45494;-79
2021/08/03 05:56:00;;;;;;;;;3.00;2.25;;;;;19.25;66.82;100850.25;5012280;28;46885;-79
2021/08/03 05:58:25;;;;;;;;;2.25;2.25;;;;;19.11;67.07;100834.94;4999866;28;45634;-79
2021/08/03 06:00:51;;;;;;;;;6.00;3.25;;;;;19.34;66.67;100873.09;4998938;28;45629;-78
2021/08/03 06:03:16;;;;;;;;;3.75;3.25;;;;;19.31;66.96;100871.50;4978468;28;45502;-77
2021/08/03 06:05:42;;;;;;;;;5.75;4.00;;;;;19.29;67.04;100862.59;4997255;28;48169;-81
2021/08/03 06:08:10;;;;;;;;;5.00;5.00;;;;;19.31;67.50;100873.31;4999745;28;45404;-79
2021/08/03 06:10:37;;;;;;;;;4.75;3.75;;;;;19.34;67.69;100876.66;5000679;28;45442;-81
2021/08/03 06:13:06;;;;;;;;;7.00;6.00;;;;;19.19;67.60;100851.50;5001144;28;45414;-81
2021/08/03 06:15:37;;;;;;;;;6.50;6.50;;;;;19.40;67.50;100887.09;5000676;28;46434;-81
2021/08/03 06:18:09;;;;;;;;;4.25;4.25;;;;;19.41;67.02;100879.84;5000874;28;45651;-79
2021/08/03 06:20:34;;;;;;;;;5.75;5.25;;;;;19.42;67.45;100885.16;5000470;28;45357;-79
2021/08/03 06:23:00;;;;;;;;;4.50;4.50;;;;;19.40;67.58;100881.69;5000774;28;45188;-79
2021/08/03 06:25:26;;;;;;;;;3.50;2.00;;;;;19.38;67.57;100882.78;5000268;28;45308;-78
2021/08/03 06:27:52;;;;;;;;;2.00;2.00;;;;;19.36;66.96;100868.44;5000737;28;45299;-78
2021/08/03 06:30:18;;;;;;;;;1.75;1.75;;;;;19.45;67.14;100884.09;5001029;28;45241;-78
2021/08/03 06:33:02;;;;;;;;;4.75;2.00;;;;;19.46;67.05;100904.75;5000356;28;45419;-79
2021/08/03 06:35:28;;;;;;;;;3.00;2.00;;;;;19.47;66.46;100900.22;5000044;28;45335;-78
2021/08/03 06:37:53;;;;;;;;;2.50;2.50;;;;;19.44;66.98;100894.06;5000513;28;45395;-78
2021/08/03 06:40:19;;;;;;;;;2.00;2.00;;;;;19.48;66.95;100901.94;5000534;28;45383;-77
2021/08/03 06:42:59;;;;;;;;;2.00;2.00;;;;;19.48;66.74;100907.38;5000457;28;45303;-79
2021/08/03 06:45:29;;;;;;;;;2.50;2.00;;;;;19.38;66.57;100893.59;5000583;28;46005;-78
2021/08/03 06:48:07;;;;;;;;;3.25;3.00;;;;;19.45;67.00;100913.88;5000251;28;45401;-80
2021/08/03 06:50:41;;;;;;;;;3.00;3.00;;;;;19.45;66.87;100897.63;5000597;28;45331;-80
2021/08/03 06:53:09;;;;;;;;;2.25;2.25;;;;;19.44;66.95;100913.00;4989720;28;45999;-68
2021/08/03 06:55:40;;;;;;;;;4.75;4.00;;;;;19.43;66.69;100908.56;4999232;28;46314;-68
2021/08/03 06:58:16;;;;;;;;;5.00;5.00;;;;;19.41;66.90;100913.22;5000264;28;45547;-68
2021/08/03 07:00:44;;;;;;;;;4.25;3.25;;;;;19.37;66.83;100908.94;4999992;28;45801;-68
2021/08/03 07:03:10;;;;;;;;;2.50;2.50;;;;;19.41;66.92;100921.34;5000002;28;45307;-68
2021/08/03 07:05:53;;;;;;;;;2.00;2.00;;;;;19.40;66.91;100919.59;4999846;28;45223;-68
2021/08/03 07:08:19;;;;;;;;;5.25;4.00;;;;;19.39;66.87;100919.69;4999799;28;45545;-68
2021/08/03 07:10:45;;;;;;;;;2.25;2.25;;;;;19.38;66.53;100923.38;5000124;28;45324;-68
2021/08/03 07:13:12;;;;;;;;;1.75;1.00;;;;;19.34;66.34;100924.53;5000053;28;45319;-68
2021/08/03 07:15:37;;;;;;;;;2.25;2.25;;;;;19.36;66.13;100928.88;5000023;28;46210;-68
2021/08/03 07:18:07;;;;;;;;;3.00;2.00;;;;;19.34;66.27;100921.81;4999793;28;45221;-68
2021/08/03 07:20:32;;;;;;;;;3.00;3.00;;;;;19.37;66.43;100933.31;5000162;28;45312;-68
2021/08/03 07:22:59;;;;;;;;;2.75;2.75;;;;;19.38;66.19;100937.78;4999918;28;45305;-67
2021/08/03 07:25:25;;;;;;;;;2.75;2.75;;;;;19.36;65.79;100931.59;4999192;28;45385;-68
2021/08/03 07:27:50;;;;;;;;;4.00;4.00;;;;;19.39;65.59;100933.22;4999847;28;45296;-68
2021/08/03 07:30:16;;;;;;;;;4.00;3.00;;;;;19.37;66.09;100933.31;4998676;28;45379;-67
2021/08/03 07:32:41;;;;;;;;;5.50;4.50;;;;;19.43;66.10;100937.47;4999695;28;45261;-68
2021/08/03 07:35:07;;;;;;;;;2.75;2.75;;;;;19.45;65.86;100943.66;4999649;28;46209;-68
2021/08/03 07:37:37;;;;;;;;;1.75;1.75;;;;;19.44;65.34;100950.00;4999785;28;45280;-68
2021/08/03 07:40:03;;;;;;;;;2.50;2.50;;;;;19.46;64.73;100958.03;4999571;28;45421;-68
2021/08/03 07:42:29;;;;;;;;;2.00;2.00;;;;;19.45;64.57;100951.75;4999508;28;45469;-68
2021/08/03 07:44:54;;;;;;;;;2.00;2.00;;;;;19.38;64.43;100931.50;4999701;28;46087;-68
2021/08/03 07:47:19;;;;;;;;;1.50;1.50;;;;;19.43;64.54;100942.88;5003017;28;45292;-68
2021/08/03 07:49:47;;;;;;;;;2.00;2.00;;;;;19.49;64.80;100944.31;5003103;28;45257;-68
2021/08/03 07:52:13;;;;;;;;;0.75;0.75;;;;;19.48;64.34;100940.75;5002983;28;45558;-68
2021/08/03 07:54:38;;;;;;;;;2.50;2.25;;;;;19.52;63.61;100947.66;5002474;28;46346;-68
2021/08/03 07:57:04;;;;;;;;;2.00;2.00;;;;;19.51;63.36;100943.25;5003025;28;45268;-68
2021/08/03 07:59:29;;;;;;;;;2.00;2.00;;;;;19.46;63.72;100937.25;5003092;28;45353;-68
2021/08/03 08:01:54;;;;;;;;;2.50;2.50;;;;;19.25;63.83;100898.97;5002960;28;45463;-67
2021/08/03 08:04:20;;;;;;;;;2.75;2.00;;;;;19.48;62.81;100929.03;5002291;28;46512;-70
2021/08/03 08:06:45;;;;;;;;;3.25;3.25;;;;;19.41;63.57;100920.44;5002514;28;45637;-70
2021/08/03 08:09:10;;;;;;;;;3.00;2.75;;;;;19.45;62.88;100919.28;5002330;28;45404;-68
2021/08/03 08:11:36;;;;;;;;;3.00;3.00;;;;;19.49;63.23;100928.06;5002690;28;45395;-67
2021/08/03 08:14:01;;;;;;;;;3.00;3.00;;;;;19.55;63.18;100925.81;5002532;28;46175;-67
2021/08/03 08:16:27;;;;;;;;;4.00;4.00;;;;;19.49;63.64;100909.97;5002593;28;45407;-68
2021/08/03 08:18:52;;;;;;;;;3.00;3.00;;;;;19.52;63.65;100909.75;5002543;28;45410;-68
2021/08/03 08:21:17;;;;;;;;;3.00;3.00;;;;;19.63;63.62;100918.03;5002517;28;45366;-68
2021/08/03 08:23:43;;;;;;;;;3.75;3.75;;;;;19.68;64.39;100912.31;5001377;28;46916;-68
2021/08/03 08:26:08;;;;;;;;;2.50;2.50;;;;;19.60;63.68;100896.59;5002334;28;45188;-68
2021/08/03 08:28:34;;;;;;;;;2.50;2.50;;;;;19.73;63.58;100901.16;5001757;28;45349;-68
2021/08/03 08:30:59;;;;;;;;;2.50;2.50;;;;;19.77;62.88;100918.97;5002209;28;45544;-68
2021/08/03 08:33:25;;;;;;;;;3.75;3.75;;;;;19.82;63.39;100921.38;5001761;28;45474;-68
2021/08/03 08:35:51;;;;;;;;;4.75;4.75;;;;;19.84;63.68;100916.72;5002332;28;45326;-68
2021/08/03 08:38:16;;;;;;;;;4.25;4.25;;;;;19.77;62.86;100895.47;5002200;28;45277;-68
2021/08/03 08:40:42;;;;;;;;;4.25;4.00;;;;;19.91;62.85;100920.72;5001950;28;45414;-68
2021/08/03 08:43:12;;;;;;;;;4.00;4.00;;;;;19.94;63.18;100924.09;5002163;28;46264;-68
2021/08/03 08:45:38;;;;;;;;;5.00;5.00;;;;;19.97;63.46;100923.88;5002382;28;45385;-70
2021/08/03 08:48:04;;;;;;;;;4.25;3.50;;;;;19.92;63.27;100917.06;5000549;28;45317;-70
2021/08/03 08:50:29;;;;;;;;;2.75;2.75;;;;;19.97;62.31;100921.16;5002134;28;45539;-70
2021/08/03 08:52:56;;;;;;;;;5.50;3.50;;;;;19.92;62.87;100914.34;5001665;28;45925;-70
2021/08/03 08:55:23;;;;;;;;;3.50;3.00;;;;;19.98;63.32;100917.50;5000370;28;45433;-70
2021/08/03 08:57:51;;;;;;;;;3.00;3.00;;;;;19.97;63.35;100921.16;5001176;28;45389;-70
2021/08/03 09:00:19;;;;;;;;;2.25;2.25;;;;;19.95;62.95;100916.84;5001898;28;45384;-71
2021/08/03 09:02:47;;;;;;;;;3.25;3.25;;;;;20.06;62.41;100927.78;5001218;28;45489;-70
2021/08/03 09:05:14;;;;;;;;;4.00;3.75;;;;;20.07;61.96;100932.25;5001807;28;45446;-70
2021/08/03 09:07:47;;;;;;;;;2.50;2.25;;;;;20.12;62.08;100926.50;5001701;28;45299;-70
2021/08/03 09:10:41;;;;;;;;;3.25;3.25;;;;;20.08;61.41;100909.59;5001321;28;45383;-70
2021/08/03 09:13:17;;;;;;;;;2.00;2.00;;;;;20.18;61.54;100920.69;4991163;28;45403;-70
2021/08/03 09:16:00;;;;;;;;;3.50;3.00;;;;;20.09;61.69;100908.63;5000752;28;45553;-71
2021/08/03 09:18:45;;;;;;;;;3.00;3.00;;;;;20.16;61.01;100923.50;5001611;28;45477;-70
2021/08/03 09:21:24;;;;;;;;;3.25;3.25;;;;;20.23;61.09;100933.88;4997259;28;45600;-69
2021/08/03 09:23:56;;;;;;;;;5.00;3.25;;;;;20.22;61.51;100933.03;4993110;28;46674;-79
2021/08/03 09:26:46;;;;;;;;;2.50;2.50;;;;;20.23;61.41;100932.06;4997548;28;45396;-76
2021/08/03 09:29:13;;;;;;;;;3.75;3.75;;;;;20.21;61.48;100925.00;4992013;28;45514;-75
2021/08/03 09:31:41;;;;;;;;;3.00;2.25;;;;;20.12;60.87;100916.53;4995836;28;45811;-76
2021/08/03 09:34:15;;;;;;;;;2.50;2.50;;;;;20.19;60.12;100933.22;4995671;28;46371;-75
2021/08/03 09:36:44;;;;;;;;;3.50;3.50;;;;;20.18;59.66;100943.22;4996794;28;45585;-79
2021/08/03 09:39:38;;;;;;;;;1.75;1.75;;;;;20.17;60.15;100937.91;4986619;28;45836;-77
2021/08/03 09:42:08;;;;;;;;;5.50;3.50;;;;;20.15;60.39;100937.16;4985149;28;45814;-77
2021/08/03 09:44:35;;;;;;;;;3.00;3.00;;;;;20.20;59.80;100943.09;4984152;28;48134;-78
2021/08/03 09:47:01;;;;;;;;;3.00;3.00;;;;;20.22;60.55;100926.75;4994213;28;45680;-79
2021/08/03 09:49:34;;;;;;;;;3.00;3.00;;;;;20.18;60.20;100912.53;4995272;28;45431;-78
2021/08/03 09:52:12;;;;;;;;;4.00;4.00;;;;;20.30;59.55;100924.38;4996761;28;45459;-78
2021/08/03 09:54:38;;;;;;;;;3.00;3.00;;;;;20.06;59.83;100878.16;4992616;28;48180;-79
2021/08/03 09:57:18;;;;;;;;;4.00;3.50;;;;;20.35;59.35;100909.50;4994324;28;45883;-78
2021/08/03 09:59:43;;;;;;;;;3.25;2.25;;;;;20.34;58.58;100905.03;4996603;28;45969;-80
2021/08/03 10:02:15;;;;;;;;;2.00;2.00;;;;;20.32;59.09;100904.28;4995447;28;45608;-79
2021/08/03 10:04:43;;;;;;;;;4.50;3.50;;;;;20.44;58.88;100923.38;4995065;28;47473;-79
2021/08/03 10:07:09;;;;;;;;;4.00;4.00;;;;;20.41;58.84;100918.16;4996181;28;45833;-79
2021/08/03 10:09:35;;;;;;;;;4.00;3.00;;;;;20.41;58.84;100913.59;4985016;28;45744;-79
2021/08/03 10:12:01;;;;;;;;;1.75;1.75;;;;;20.38;58.79;100907.53;4996492;28;45753;-79
2021/08/03 10:14:26;;;;;;;;;3.00;3.00;;;;;20.47;58.08;100920.44;4996596;28;45701;-79
2021/08/03 10:16:53;;;;;;;;;2.50;2.50;;;;;20.41;58.33;100905.47;4993861;28;45452;-69
2021/08/03 10:19:33;;;;;;;;;3.25;3.25;;;;;20.49;58.84;100915.78;4995862;28;45801;-69
2021/08/03 10:22:10;;;;;;;;;2.25;2.25;;;;;20.58;59.54;100927.81;4996350;28;45493;-68
2021/08/03 10:24:52;;;;;;;;;4.50;3.25;;;;;20.47;59.46;100906.91;4995628;28;46077;-69
2021/08/03 10:27:18;;;;;;;;;4.00;4.00;;;;;20.61;59.44;100936.59;4994387;28;45621;-68
2021/08/03 10:29:50;;;;;;;;;5.00;3.50;;;;;20.63;58.88;100937.41;4995258;28;45716;-69
2021/08/03 10:32:53;;;;;;;;;1.00;1.00;;;;;20.66;60.15;100926.31;4995835;28;45590;-69
2021/08/03 10:35:19;;;;;;;;;2.00;2.00;;;;;20.69;58.95;100923.38;4954863;28;45769;-68
2021/08/03 10:38:00;;;;;;;;;2.75;2.75;;;;;20.71;58.61;100910.59;4987903;28;45629;-71
2021/08/03 10:40:43;;;;;;;;;2.00;2.00;;;;;20.77;59.43;100911.13;4995994;28;45750;-70
2021/08/03 10:43:25;;;;;;;;;2.50;2.50;;;;;20.82;58.40;100911.66;4995763;28;45423;-70
2021/08/03 10:46:06;;;;;;;;;3.00;2.50;;;;;20.85;58.34;100917.72;4996015;28;46175;-70
2021/08/03 10:48:37;;;;;;;;;4.00;4.00;;;;;20.90;57.81;100909.25;4995275;28;45729;-70
2021/08/03 10:51:15;;;;;;;;;4.00;4.00;;;;;20.94;57.96;100913.47;4996076;28;45556;-72
2021/08/03 10:54:02;;;;;;;;;4.25;4.00;;;;;20.96;58.37;100914.22;4975609;28;45508;-70
2021/08/03 10:56:52;;;;;;;;;4.00;4.00;;;;;20.99;57.21;100910.41;4995413;28;45794;-69
2021/08/03 10:59:40;;;;;;;;;2.00;2.00;;;;;21.00;57.46;100913.03;5008847;28;45702;-70
2021/08/03 11:02:08;;;;;;;;;4.50;3.50;;;;;21.01;57.12;100908.44;5008013;28;45667;-70
2021/08/03 11:04:43;;;;;;;;;5.00;4.00;;;;;21.02;57.73;100921.06;4996874;28;45526;-69
2021/08/03 11:07:27;;;;;;;;;4.50;4.50;;;;;21.03;57.72;100925.47;4995838;28;46152;-69
2021/08/03 11:10:14;;;;;;;;;3.75;3.50;;;;;21.03;57.63;100922.75;5020481;28;45738;-76
2021/08/03 11:12:49;;;;;;;;;3.25;3.25;;;;;21.03;57.69;100934.50;4996488;28;45580;-77
2021/08/03 11:15:23;;;;;;;;;3.25;3.25;;;;;21.03;57.59;100931.78;4995971;28;45729;-76
2021/08/03 11:17:52;;;;;;;;;4.00;4.00;;;;;21.03;57.01;100934.50;4999393;28;45451;-76
2021/08/03 11:20:36;;;;;;;;;5.00;3.50;;;;;21.03;57.39;100934.50;4993345;28;45844;-76
2021/08/03 11:23:06;;;;;;;;;3.75;3.75;;;;;21.01;57.33;100928.31;5004027;28;45489;-76
2021/08/03 11:25:33;;;;;;;;;2.25;2.00;;;;;20.99;57.54;100916.69;4996225;28;45522;-77
2021/08/03 11:28:21;;;;;;;;;3.50;3.00;;;;;20.95;57.32;100908.88;4993238;28;46576;-77
2021/08/03 11:30:51;;;;;;;;;4.50;4.50;;;;;21.07;56.97;100919.72;4986288;28;45573;-76
2021/08/03 11:33:19;;;;;;;;;6.25;5.00;;;;;21.02;56.81;100902.06;4995588;28;45899;-76
2021/08/03 11:35:44;;;;;;;;;3.00;3.00;;;;;;;;5005634;28;45754;-77
2021/08/03 11:38:12;;;;;;;;;4.00;4.00;;;;;21.07;56.42;100905.28;4998433;28;45966;-79